Asbury, Illinois
Current Conditions -  °F | °C
As of 2:15 AM on Sunday 23 Nov 2014 (Local Time) from KCUL Reporting Station
Clear Clear  
Wind Chill: 42°   Ceiling: Unl
Heat Index: 46°   Visibility: 10mi
Dew Point: 40°   Wind: 8mph
Humidity: 80%   Direction: 140°SE
Pressure: 29.92"   Gusts: NA
Location:  37.8866°N, 88.266°W
Report Text: KCUL 230815Z AUTO 14007KT 10SM CLR 08/05 A2992 RMK AO2 T00790046
Loading
Personal Weather Stations






























Interactive Weather Map New forecast layout! Learn more

10-Day Weather Forecast

Advertisements
Track Severe Weather on mobile